Time;durP1;ratioP1;P1;durP2;ratioP2;P2;SDS_P1;SDS_P2;PMS_P1;PMS_P2;Temp;Humidity;BMP_temperature;BMP_pressure;BME280_temperature;BME280_humidity;BME280_pressure;Samples;Min_cycle;Max_cycle;Signal;HPM_P1;HPM_P2
2021/04/22 00:00:20;;;;;;;27.80;4.50;;;;;;;2.95;74.91;101850.69;5003989;28;20696;-77
2021/04/22 00:02:46;;;;;;;19.50;3.95;;;;;;;2.92;74.70;101863.81;4989621;28;20056;-76
2021/04/22 00:05:32;;;;;;;24.05;4.47;;;;;;;3.09;74.93;101860.47;5005687;28;20069;-79
2021/04/22 00:07:58;;;;;;;26.58;4.45;;;;;;;3.01;74.80;101859.94;5004510;28;20550;-77
2021/04/22 00:10:32;;;;;;;20.25;3.92;;;;;;;3.07;74.83;101855.34;5008095;28;20038;-80
2021/04/22 00:12:57;;;;;;;24.73;4.15;;;;;;;3.07;74.46;101859.66;4990632;28;20041;-80
2021/04/22 00:15:23;;;;;;;22.40;4.05;;;;;;;2.93;74.88;101857.72;5016352;28;20052;-78
2021/04/22 00:17:52;;;;;;;21.30;4.43;;;;;;;3.09;75.12;101856.09;5018399;28;20057;-80
2021/04/22 00:20:18;;;;;;;26.83;3.88;;;;;;;3.19;74.37;101859.09;4976386;28;20041;-78
2021/04/22 00:22:44;;;;;;;22.58;3.80;;;;;;;3.38;73.95;101868.63;5005259;28;20499;-76
2021/04/22 00:25:10;;;;;;;21.98;3.88;;;;;;;3.31;74.20;101868.91;4985890;28;20038;-79
2021/04/22 00:27:36;;;;;;;33.70;4.75;;;;;;;3.23;74.53;101863.22;4991424;28;20038;-77
2021/04/22 00:30:10;;;;;;;22.23;4.28;;;;;;;3.13;74.06;101872.38;4974854;28;20042;-77
2021/04/22 00:32:36;;;;;;;23.63;3.90;;;;;;;3.14;74.65;101875.78;4974265;28;20406;-78
2021/04/22 00:35:03;;;;;;;31.38;4.32;;;;;;;3.00;75.25;101871.25;4968643;28;20550;-78
2021/04/22 00:37:29;;;;;;;27.90;4.22;;;;;;;3.06;74.79;101860.59;4969475;28;20046;-79
2021/04/22 00:40:16;;;;;;;20.50;3.47;;;;;;;3.03;75.21;101861.56;4976732;28;20136;-78
2021/04/22 00:42:41;;;;;;;;;;;;;;;2.88;75.57;101867.44;4981360;28;20057;-77
2021/04/22 00:45:08;;;;;;;32.40;4.95;;;;;;;2.87;75.64;101869.19;4968470;28;20375;-78
2021/04/22 00:47:36;;;;;;;24.38;3.83;;;;;;;2.98;75.05;101862.69;4968489;28;20058;-79
2021/04/22 00:50:02;;;;;;;27.50;4.90;;;;;;;3.02;75.09;101862.47;4972701;28;20043;-80
2021/04/22 00:52:28;;;;;;;17.70;3.80;;;;;;;3.10;74.67;101869.91;4990177;28;20053;-78
2021/04/22 00:54:54;;;;;;;31.15;4.32;;;;;;;3.08;74.78;101862.19;4985235;28;20415;-76
2021/04/22 00:57:19;;;;;;;26.50;4.45;;;;;;;3.07;74.79;101865.72;4989975;28;20062;-78
2021/04/22 00:59:45;;;;;;;35.53;4.68;;;;;;;3.05;74.43;101845.94;4996989;28;20057;-81
2021/04/22 01:02:13;;;;;;;28.80;5.53;;;;;;;3.21;74.50;101874.59;4988540;28;20044;-78
2021/04/22 01:04:39;;;;;;;25.30;4.70;;;;;;;3.30;73.49;101866.41;5018654;28;20054;-78
2021/04/22 01:07:04;;;;;;;25.48;4.78;;;;;;;3.16;73.65;101868.78;4989770;28;20476;-76
2021/04/22 01:09:30;;;;;;;28.33;4.13;;;;;;;3.36;72.74;101863.50;4971582;28;20069;-81
2021/04/22 01:11:56;;;;;;;21.67;3.75;;;;;;;3.26;72.27;101870.88;4972905;28;20065;-80
2021/04/22 01:14:22;;;;;;;31.08;4.88;;;;;;;3.19;72.50;101868.66;5002406;28;20511;-78
2021/04/22 01:16:49;;;;;;;24.92;4.30;;;;;;;3.09;72.72;101870.81;4991298;28;20047;-77
2021/04/22 01:19:16;;;;;;;18.85;3.53;;;;;;;3.18;71.09;101867.78;4983345;28;20137;-79
2021/04/22 01:21:42;;;;;;;24.20;4.78;;;;;;;3.21;70.43;101866.81;5005589;28;20464;-76
2021/04/22 01:24:09;;;;;;;21.00;3.85;;;;;;;3.15;70.41;101862.75;5003628;28;20092;-79
2021/04/22 01:26:35;;;;;;;28.10;3.67;;;;;;;3.21;69.80;101866.81;4970948;28;20784;-78
2021/04/22 01:29:02;;;;;;;25.17;3.88;;;;;;;3.17;71.33;101876.50;4969570;28;20062;-78
2021/04/22 01:31:29;;;;;;;22.50;3.35;;;;;;;3.06;71.65;101868.38;4959182;28;20053;-79
2021/04/22 01:34:08;;;;;;;26.88;4.25;;;;;;;3.07;71.81;101875.22;4957013;28;20055;-76
2021/04/22 01:36:35;;;;;;;18.95;4.32;;;;;;;3.01;72.93;101880.69;4996845;28;20052;-79
2021/04/22 01:39:04;;;;;;;23.10;4.05;;;;;;;2.92;73.16;101885.38;4978848;28;20046;-76
2021/04/22 01:41:30;;;;;;;34.53;4.95;;;;;;;3.08;73.18;101872.56;4967202;28;20039;-77
2021/04/22 01:43:56;;;;;;;30.90;5.38;;;;;;;3.21;72.75;101882.38;4977316;28;20050;-77
2021/04/22 01:46:22;;;;;;;32.72;5.63;;;;;;;3.35;72.07;101879.13;4972032;28;20145;-77
2021/04/22 01:48:47;;;;;;;27.08;4.97;;;;;;;3.39;73.20;101880.66;4989243;28;20073;-76
2021/04/22 01:51:13;;;;;;;26.08;4.70;;;;;;;3.30;72.86;101881.94;4970431;28;20108;-76
2021/04/22 01:53:38;;;;;;;28.65;5.35;;;;;;;3.33;72.51;101874.00;4977472;28;20129;-78
2021/04/22 01:56:04;;;;;;;23.50;5.20;;;;;;;3.43;71.96;101884.81;4986281;28;20101;-76
2021/04/22 01:58:30;;;;;;;28.30;4.47;;;;;;;3.47;71.23;101882.00;4972021;28;20049;-77
2021/04/22 02:00:57;;;;;;;23.05;4.10;;;;;;;3.55;71.57;101884.22;4971430;28;20066;-77
2021/04/22 02:03:25;;;;;;;22.25;4.40;;;;;;;3.59;72.24;101884.91;4986949;28;20042;-80
2021/04/22 02:05:51;;;;;;;23.20;4.13;;;;;;;3.73;71.23;101877.31;4987045;28;20053;-79
2021/04/22 02:08:17;;;;;;;30.27;4.53;;;;;;;3.93;69.94;101868.53;4984987;28;20061;-78
2021/04/22 02:10:44;;;;;;;26.73;4.18;;;;;;;3.97;70.10;101872.66;4957205;28;20039;-76
2021/04/22 02:13:11;;;;;;;24.67;4.55;;;;;;;4.08;71.24;101883.34;4969824;28;20050;-77
2021/04/22 02:15:38;;;;;;;24.98;3.80;;;;;;;4.10;71.04;101883.28;4985057;28;20066;-77
2021/04/22 02:18:05;;;;;;;31.85;4.30;;;;;;;4.07;71.50;101873.91;4982880;28;20050;-77
2021/04/22 02:20:31;;;;;;;27.85;3.60;;;;;;;4.21;69.49;101880.16;4987389;28;20042;-77
2021/04/22 02:22:56;;;;;;;19.98;3.95;;;;;;;4.32;71.14;101887.41;4975822;28;20050;-75
2021/04/22 02:25:25;;;;;;;26.92;4.03;;;;;;;4.29;71.41;101888.38;5025272;28;20041;-76
2021/04/22 02:27:52;;;;;;;33.78;4.93;;;;;;;4.22;71.82;101889.59;5002863;28;20053;-76
2021/04/22 02:30:24;;;;;;;19.45;3.60;;;;;;;4.27;71.17;101893.66;5008749;28;20042;-78
2021/04/22 02:32:50;;;;;;;22.05;4.28;;;;;;;4.25;71.10;101882.50;4984529;28;20050;-77
2021/04/22 02:35:19;;;;;;;22.10;3.58;;;;;;;4.35;69.99;101884.63;4974414;28;20058;-74
2021/04/22 02:37:45;;;;;;;21.92;3.70;;;;;;;4.46;69.75;101888.41;4993299;28;20041;-77
2021/04/22 02:40:15;;;;;;;21.83;3.38;;;;;;;4.41;69.48;101880.00;4991498;28;20504;-78
2021/04/22 02:42:41;;;;;;;20.42;3.47;;;;;;;4.43;68.21;101883.34;4988160;28;20124;-77
2021/04/22 02:45:22;;;;;;;18.48;3.38;;;;;;;4.48;67.16;101891.75;5006897;28;20061;-78
2021/04/22 02:47:47;;;;;;;21.55;3.67;;;;;;;4.54;67.59;101888.00;4988405;28;20113;-79
2021/04/22 02:50:20;;;;;;;22.60;3.08;;;;;;;4.49;66.01;101883.03;5007843;28;20042;-77
2021/04/22 02:52:46;;;;;;;19.95;3.53;;;;;;;4.63;62.67;101871.94;4980728;28;20072;-78
2021/04/22 02:55:12;;;;;;;21.55;3.42;;;;;;;4.59;63.34;101891.16;4972851;28;20042;-78
2021/04/22 02:57:39;;;;;;;20.23;3.00;;;;;;;4.64;65.22;101893.56;4955100;28;20112;-74
2021/04/22 03:00:11;;;;;;;18.67;3.63;;;;;;;4.60;65.15;101884.25;4987790;28;20077;-79
2021/04/22 03:02:37;;;;;;;16.58;3.35;;;;;;;4.66;63.83;101883.91;4955281;28;20080;-78
2021/04/22 03:05:04;;;;;;;19.77;3.45;;;;;;;4.63;64.96;101887.53;4988281;28;20050;-79
2021/04/22 03:07:29;;;;;;;27.90;3.85;;;;;;;4.68;64.73;101888.09;4993400;28;20053;-77
2021/04/22 03:09:55;;;;;;;25.25;4.43;;;;;;;4.67;65.88;101872.56;5026912;28;20846;-77
2021/04/22 03:12:21;;;;;;;20.40;3.65;;;;;;;4.70;65.79;101887.19;4970344;28;20515;-77
2021/04/22 03:14:46;;;;;;;26.20;5.07;;;;;;;4.68;66.30;101876.88;4990359;28;20702;-76
2021/04/22 03:17:13;;;;;;;17.67;3.13;;;;;;;4.60;68.16;101885.06;5004296;28;20073;-78
2021/04/22 03:19:38;;;;;;;18.20;3.63;;;;;;;4.64;66.59;101884.00;4984839;28;20050;-80
2021/04/22 03:22:04;;;;;;;18.67;3.45;;;;;;;4.62;66.97;101874.59;4969304;28;20535;-75
2021/04/22 03:24:30;;;;;;;17.10;3.90;;;;;;;4.67;67.28;101869.97;4975725;28;20500;-76
2021/04/22 03:26:55;;;;;;;25.65;3.55;;;;;;;4.70;66.84;101869.84;4968270;28;20042;-78
2021/04/22 03:29:21;;;;;;;26.27;3.95;;;;;;;4.73;67.07;101872.28;4976991;28;20064;-75
2021/04/22 03:31:46;;;;;;;19.42;3.70;;;;;;;4.75;67.66;101870.44;4981391;28;20068;-78
2021/04/22 03:34:12;;;;;;;16.42;3.15;;;;;;;4.72;66.84;101875.78;4968483;28;20515;-75
2021/04/22 03:36:37;;;;;;;25.58;3.47;;;;;;;4.75;67.00;101880.00;4982287;28;20511;-75
2021/04/22 03:39:04;;;;;;;20.95;3.75;;;;;;;4.75;65.95;101872.19;4988571;28;20049;-76
2021/04/22 03:41:30;;;;;;;28.00;4.30;;;;;;;4.77;66.94;101876.38;4987417;28;20547;-76
2021/04/22 03:43:56;;;;;;;23.35;5.15;;;;;;;4.83;65.59;101880.44;4985466;28;20180;-77
2021/04/22 03:46:21;;;;;;;22.83;5.38;;;;;;;4.78;66.86;101877.22;4973938;28;20049;-77
2021/04/22 03:48:48;;;;;;;22.70;4.22;;;;;;;4.79;66.98;101877.16;4991988;28;20136;-77
2021/04/22 03:51:13;;;;;;;22.83;3.60;;;;;;;4.78;67.67;101879.81;4974489;28;20263;-76
2021/04/22 03:53:39;;;;;;;23.10;4.20;;;;;;;4.75;67.66;101880.84;4989559;28;20565;-75
2021/04/22 03:56:05;;;;;;;16.05;3.65;;;;;;;4.82;67.54;101883.94;4999461;28;20125;-77
2021/04/22 03:58:30;;;;;;;16.08;3.53;;;;;;;4.81;68.93;101887.47;4970752;28;20042;-78
2021/04/22 04:00:56;;;;;;;26.15;3.60;;;;;;;4.75;68.50;101887.81;4986740;28;20042;-76
2021/04/22 04:03:21;;;;;;;29.17;4.25;;;;;;;4.75;68.91;101885.19;4988336;28;20035;-80
2021/04/22 04:05:47;;;;;;;28.08;3.97;;;;;;;4.81;69.08;101888.31;4975259;28;20057;-77
2021/04/22 04:08:12;;;;;;;21.77;3.63;;;;;;;4.81;69.03;101900.47;4976513;28;20496;-78
2021/04/22 04:10:39;;;;;;;19.15;3.30;;;;;;;4.88;69.85;101900.06;4984277;28;20129;-77
2021/04/22 04:13:05;;;;;;;22.83;3.67;;;;;;;4.80;71.63;101897.03;4972026;28;20611;-78
2021/04/22 04:15:31;;;;;;;18.27;3.70;;;;;;;4.75;72.87;101899.03;4972127;28;20074;-77
2021/04/22 04:17:56;;;;;;;26.60;4.20;;;;;;;4.66;74.17;101909.91;5002443;28;20082;-78
2021/04/22 04:20:22;;;;;;;30.77;4.22;;;;;;;4.66;73.93;101900.34;4996516;28;20416;-80
2021/04/22 04:22:48;;;;;;;24.92;3.58;;;;;;;4.63;74.08;101905.72;5002137;28;20499;-79
2021/04/22 04:25:14;;;;;;;24.35;4.05;;;;;;;4.67;74.06;101891.63;5012523;28;20084;-79
2021/04/22 04:27:41;;;;;;;30.80;3.50;;;;;;;4.69;73.42;101909.75;4998894;28;20134;-78
2021/04/22 04:30:09;;;;;;;19.02;3.17;;;;;;;4.71;72.57;101907.91;5003575;28;20269;-78
2021/04/22 04:32:34;;;;;;;18.77;3.17;;;;;;;4.71;72.98;101902.72;5001151;28;20120;-79
2021/04/22 04:35:00;;;;;;;31.38;4.18;;;;;;;4.78;72.22;101904.03;4990767;28;20038;-78
2021/04/22 04:37:26;;;;;;;27.80;3.90;;;;;;;4.90;71.43;101912.97;4977726;28;20500;-79
2021/04/22 04:39:51;;;;;;;29.00;3.58;;;;;;;4.93;69.92;101909.38;4989059;28;20041;-80
2021/04/22 04:42:18;;;;;;;24.48;4.10;;;;;;;4.99;70.94;101906.44;4985072;28;20522;-77
2021/04/22 04:44:44;;;;;;;25.38;4.07;;;;;;;5.05;70.27;101921.72;4994441;28;20125;-78
2021/04/22 04:47:09;;;;;;;24.63;3.38;;;;;;;5.15;69.78;101925.50;4978206;28;20432;-81
2021/04/22 04:49:35;;;;;;;30.20;3.53;;;;;;;5.10;70.21;101932.72;4994259;28;20070;-78
2021/04/22 04:52:00;;;;;;;25.33;4.05;;;;;;;5.01;72.81;101923.66;4977960;28;20118;-80
2021/04/22 04:54:26;;;;;;;18.35;3.40;;;;;;;4.93;75.08;101932.78;4990907;28;20050;-76
2021/04/22 04:56:51;;;;;;;28.83;3.83;;;;;;;4.87;74.34;101933.94;4975983;28;20122;-76
2021/04/22 04:59:17;;;;;;;18.48;3.30;;;;;;;4.97;73.76;101934.28;4974664;28;20082;-80
2021/04/22 05:01:43;;;;;;;24.98;3.53;;;;;;;4.98;74.36;101938.56;4978069;28;20064;-82
2021/04/22 05:04:08;;;;;;;28.85;3.83;;;;;;;5.04;74.01;101940.84;4994876;28;20050;-78
2021/04/22 05:06:34;;;;;;;28.35;4.20;;;;;;;5.06;73.54;101933.81;4978930;28;20058;-76
2021/04/22 05:08:59;;;;;;;22.92;3.35;;;;;;;5.06;73.00;101939.00;4995472;28;20073;-80
2021/04/22 05:11:25;;;;;;;26.63;3.95;;;;;;;5.15;72.79;101948.09;4988186;28;20060;-82
2021/04/22 05:13:50;;;;;;;28.05;3.67;;;;;;;5.11;73.11;101962.19;4998101;28;20463;-78
2021/04/22 05:16:18;;;;;;;24.67;4.50;;;;;;;5.19;73.05;101954.81;4980153;28;20069;-77
2021/04/22 05:18:44;;;;;;;20.08;3.67;;;;;;;5.31;71.90;101959.31;4994893;28;20129;-80
2021/04/22 05:21:09;;;;;;;24.08;3.30;;;;;;;5.28;71.90;101959.50;4968093;28;20131;-78
2021/04/22 05:23:35;;;;;;;23.60;3.33;;;;;;;5.25;70.58;101963.13;4988206;28;20512;-76
2021/04/22 05:26:00;;;;;;;21.52;3.85;;;;;;;5.30;69.47;101962.03;5008481;28;20042;-75
2021/04/22 05:28:26;;;;;;;25.55;3.85;;;;;;;5.35;66.87;101958.25;4995548;28;20126;-80
2021/04/22 05:30:52;;;;;;;19.60;3.28;;;;;;;5.39;67.43;101974.56;5009998;28;20755;-79
2021/04/22 05:33:18;;;;;;;22.40;3.47;;;;;;;5.45;67.59;101975.06;5007902;28;20665;-79
2021/04/22 05:35:44;;;;;;;20.67;3.47;;;;;;;5.47;67.52;101970.59;4980631;28;20129;-78
2021/04/22 05:38:10;;;;;;;19.65;3.42;;;;;;;5.66;67.74;101974.81;4992210;28;20046;-77
2021/04/22 05:40:36;;;;;;;26.63;3.28;;;;;;;5.66;68.79;101970.44;4992001;28;20050;-76
2021/04/22 05:43:06;;;;;;;24.63;3.72;;;;;;;5.72;66.25;101971.03;4990631;28;20061;-77
2021/04/22 05:45:32;;;;;;;23.25;3.50;;;;;;;5.81;66.79;101968.75;4959543;28;20039;-78
2021/04/22 05:47:58;;;;;;;22.52;4.40;;;;;;;5.85;67.49;101970.25;4973048;28;20411;-76
2021/04/22 05:50:24;;;;;;;20.77;3.47;;;;;;;5.95;66.88;101983.66;5009097;28;20046;-79
2021/04/22 05:52:50;;;;;;;21.58;3.72;;;;;;;5.94;66.76;101981.09;4994414;28;20120;-80
2021/04/22 05:55:16;;;;;;;18.30;3.33;;;;;;;5.94;66.52;101992.34;5010040;28;20466;-78
2021/04/22 05:57:42;;;;;;;24.30;3.80;;;;;;;5.96;65.56;101987.91;5011545;28;20038;-79
2021/04/22 06:00:12;;;;;;;22.58;3.72;;;;;;;6.09;66.02;101989.84;5026240;28;20540;-77
2021/04/22 06:02:37;;;;;;;23.25;3.97;;;;;;;6.14;65.73;101993.00;5025278;28;20037;-81
2021/04/22 06:05:04;;;;;;;13.32;3.22;;;;;;;6.10;64.86;101997.53;4996455;28;20540;-80
2021/04/22 06:07:29;;;;;;;25.65;3.45;;;;;;;6.17;64.34;101998.88;5017532;28;20060;-80
2021/04/22 06:09:55;;;;;;;25.75;3.30;;;;;;;6.13;65.37;101997.38;5015624;28;20125;-76
2021/04/22 06:12:21;;;;;;;29.13;4.20;;;;;;;6.22;65.98;101996.03;4996679;28;20506;-75
2021/04/22 06:14:47;;;;;;;20.63;3.40;;;;;;;6.23;65.82;102001.16;5032798;28;20103;-78
2021/04/22 06:17:12;;;;;;;24.08;3.53;;;;;;;6.11;64.98;102003.63;4984672;28;20043;-81
2021/04/22 06:19:38;;;;;;;25.00;3.25;;;;;;;6.21;64.82;102003.00;4976251;28;20128;-77
2021/04/22 06:22:04;;;;;;;25.80;3.88;;;;;;;6.32;63.76;101997.16;5021622;28;20074;-77
2021/04/22 06:24:29;;;;;;;24.70;3.70;;;;;;;6.38;65.09;102002.03;5011949;28;20499;-81
2021/04/22 06:26:55;;;;;;;26.80;4.50;;;;;;;6.57;64.03;102006.19;4995201;28;20490;-78
2021/04/22 06:29:21;;;;;;;19.92;3.45;;;;;;;6.70;63.69;102004.53;4994434;28;20076;-77
2021/04/22 06:31:47;;;;;;;24.88;3.50;;;;;;;6.76;62.40;102000.72;4993986;28;20065;-77
2021/04/22 06:34:14;;;;;;;16.00;2.55;;;;;;;6.98;61.13;101998.50;5010358;28;20057;-76
2021/04/22 06:36:41;;;;;;;16.45;3.40;;;;;;;7.08;59.84;102000.56;5020040;28;20121;-79
2021/04/22 06:39:07;;;;;;;17.48;3.00;;;;;;;7.18;58.98;102001.69;5019955;28;20057;-80
2021/04/22 06:41:33;;;;;;;17.10;2.60;;;;;;;7.28;58.79;102008.03;5030127;28;20045;-80
2021/04/22 06:43:59;;;;;;;17.63;3.63;;;;;;;7.29;58.00;102008.84;5019023;28;20137;-77
2021/04/22 06:46:24;;;;;;;15.88;3.22;;;;;;;7.35;58.97;102022.38;4987723;28;20839;-78
2021/04/22 06:48:51;;;;;;;17.05;3.13;;;;;;;7.39;59.15;102026.47;5015866;28;20045;-78
2021/04/22 06:51:17;;;;;;;23.80;3.70;;;;;;;7.53;57.28;102016.94;5011774;28;20052;-79
2021/04/22 06:53:43;;;;;;;21.02;3.55;;;;;;;7.50;58.30;102011.94;5033926;28;20060;-77
2021/04/22 06:56:09;;;;;;;19.20;3.38;;;;;;;7.41;56.17;102016.78;4987247;28;20050;-77
2021/04/22 06:58:34;;;;;;;17.70;3.15;;;;;;;7.29;58.60;102027.97;4991163;28;20049;-77
2021/04/22 07:01:00;;;;;;;18.35;3.50;;;;;;;7.39;59.58;102033.47;5001683;28;20050;-75
2021/04/22 07:03:26;;;;;;;20.45;3.75;;;;;;;7.48;58.67;102032.03;5028944;28;20125;-76
2021/04/22 07:05:52;;;;;;;23.85;3.60;;;;;;;7.47;58.24;102046.88;5030441;28;20116;-78
2021/04/22 07:08:18;;;;;;;21.27;3.33;;;;;;;7.56;58.92;102045.50;5043889;28;20045;-76
2021/04/22 07:10:43;;;;;;;16.00;3.53;;;;;;;7.66;57.33;102038.75;4993244;28;20103;-76
2021/04/22 07:13:10;;;;;;;20.00;3.55;;;;;;;7.70;58.52;102045.44;5004770;28;20050;-77
2021/04/22 07:15:37;;;;;;;22.50;4.65;;;;;;;7.79;58.54;102033.59;4989966;28;20061;-75
2021/04/22 07:18:03;;;;;;;25.23;3.30;;;;;;;7.90;57.00;102046.00;4976178;28;20050;-77
2021/04/22 07:20:29;;;;;;;18.38;3.72;;;;;;;7.87;57.67;102049.63;4990787;28;20038;-79
2021/04/22 07:22:57;;;;;;;26.73;3.92;;;;;;;7.97;57.52;102040.28;4991429;28;20104;-80
2021/04/22 07:25:25;;;;;;;26.83;3.72;;;;;;;7.92;57.90;102062.41;4969915;28;20069;-77
2021/04/22 07:27:51;;;;;;;20.63;3.63;;;;;;;7.83;56.14;102055.97;4990682;28;20046;-77
2021/04/22 07:30:18;;;;;;;22.73;4.07;;;;;;;7.97;56.92;102050.72;5004956;28;20052;-77
2021/04/22 07:32:45;;;;;;;24.45;3.22;;;;;;;8.23;56.48;102047.38;5013717;28;20136;-76
2021/04/22 07:35:11;;;;;;;21.48;3.42;;;;;;;8.17;57.34;102053.81;5029980;28;20041;-76
2021/04/22 07:37:38;;;;;;;32.33;3.90;;;;;;;8.32;56.96;102058.06;5008327;28;20083;-77
2021/04/22 07:40:11;;;;;;;21.38;3.70;;;;;;;8.40;56.71;102052.38;4992284;28;20052;-77
2021/04/22 07:42:37;;;;;;;22.10;4.00;;;;;;;8.47;54.56;102065.88;4991943;28;20053;-75
2021/04/22 07:45:03;;;;;;;17.15;3.90;;;;;;;8.74;55.68;102060.63;4988710;28;20050;-77
2021/04/22 07:47:29;;;;;;;24.65;3.55;;;;;;;9.26;54.11;102066.72;4968348;28;20112;-76
2021/04/22 07:49:55;;;;;;;22.65;3.65;;;;;;;9.23;55.27;102069.53;4972500;28;20789;-78
2021/04/22 07:52:21;;;;;;;21.35;4.35;;;;;;;8.92;55.98;102076.84;4985620;28;20057;-77
2021/04/22 07:54:48;;;;;;;24.77;4.03;;;;;;;8.85;56.33;102058.09;4987788;28;20066;-77
2021/04/22 07:57:16;;;;;;;17.73;3.45;;;;;;;8.52;55.45;102080.34;4985381;28;20058;-74
2021/04/22 07:59:42;;;;;;;32.45;4.90;;;;;;;8.79;56.05;102070.78;4983331;28;20052;-77
2021/04/22 08:02:11;;;;;;;22.67;3.70;;;;;;;8.76;56.77;102071.81;4990139;28;20045;-76
2021/04/22 08:04:36;;;;;;;24.05;3.67;;;;;;;8.61;55.57;102083.28;4990042;28;20062;-76
2021/04/22 08:07:02;;;;;;;20.50;3.15;;;;;;;8.43;55.07;102096.63;4989724;28;20050;-78
2021/04/22 08:09:28;;;;;;;26.10;3.92;;;;;;;8.73;56.19;102087.72;4958365;28;20052;-77
2021/04/22 08:11:54;;;;;;;17.30;3.00;;;;;;;8.78;55.78;102090.88;5006392;28;20048;-77
2021/04/22 08:14:21;;;;;;;22.63;3.92;;;;;;;8.98;54.36;102086.06;4989954;28;20050;-76
2021/04/22 08:16:46;;;;;;;19.63;3.30;;;;;;;9.07;56.26;102088.91;5010283;28;20045;-79
2021/04/22 08:19:12;;;;;;;18.67;3.85;;;;;;;9.09;54.32;102084.41;5048896;28;20050;-76
2021/04/22 08:21:37;;;;;;;21.85;4.03;;;;;;;9.00;55.37;102097.28;5017181;28;20069;-75
2021/04/22 08:24:03;;;;;;;25.73;4.15;;;;;;;8.56;54.94;102099.28;4970611;28;20582;-76
2021/04/22 08:26:30;;;;;;;26.08;3.47;;;;;;;8.59;56.68;102088.63;4963784;28;20085;-76
2021/04/22 08:28:56;;;;;;;24.30;4.18;;;;;;;8.73;55.69;102092.94;4955805;28;20133;-76
2021/04/22 08:31:24;;;;;;;24.42;4.00;;;;;;;8.74;57.37;102099.88;4970947;28;20449;-76
2021/04/22 08:33:53;;;;;;;19.23;3.60;;;;;;;8.95;55.70;102095.81;4988696;28;20042;-75
2021/04/22 08:36:20;;;;;;;19.98;4.25;;;;;;;9.23;55.26;102096.56;4987238;28;20065;-79
2021/04/22 08:38:46;;;;;;;20.10;3.70;;;;;;;8.97;54.90;102100.94;4987681;28;20046;-76
2021/04/22 08:41:12;;;;;;;20.40;3.53;;;;;;;8.85;55.22;102102.59;4970412;28;20070;-77
2021/04/22 08:43:38;;;;;;;23.70;4.10;;;;;;;8.73;56.38;102109.47;4973768;28;20381;-76
2021/04/22 08:46:05;;;;;;;27.38;4.43;;;;;;;8.79;55.72;102102.16;4971153;28;20132;-76
2021/04/22 08:48:32;;;;;;;25.70;3.78;;;;;;;8.82;54.98;102107.22;5003414;28;20567;-76
2021/04/22 08:50:58;;;;;;;18.10;3.95;;;;;;;9.13;55.33;102111.22;5004036;28;20070;-76
2021/04/22 08:53:29;;;;;;;25.85;4.18;;;;;;;9.34;53.59;102109.78;4988048;28;20431;-77
2021/04/22 08:55:56;;;;;;;21.35;3.47;;;;;;;9.66;51.72;102113.72;4970947;28;20054;-78
2021/04/22 08:58:22;;;;;;;16.42;3.47;;;;;;;9.83;51.61;102112.53;4971689;28;20046;-79
2021/04/22 09:00:51;;;;;;;23.23;4.30;;;;;;;9.60;51.86;102107.13;4973692;28;20438;-78
2021/04/22 09:03:18;;;;;;;15.65;3.38;;;;;;;9.64;53.55;102116.44;4973619;28;20077;-78
2021/04/22 09:05:45;;;;;;;24.80;4.30;;;;;;;9.59;51.97;102126.41;5000389;28;20054;-77
2021/04/22 09:08:10;;;;;;;22.90;4.13;;;;;;;9.72;52.00;102124.63;4940812;28;20054;-76
2021/04/22 09:10:36;;;;;;;19.98;3.60;;;;;;;9.76;51.08;102127.84;4977024;28;20057;-79
2021/04/22 09:13:04;;;;;;;20.48;4.20;;;;;;;9.70;52.13;102126.50;4989841;28;20129;-81
2021/04/22 09:15:32;;;;;;;30.15;4.45;;;;;;;9.08;52.49;102126.38;4974869;28;20042;-76
2021/04/22 09:18:06;;;;;;;19.55;4.18;;;;;;;9.18;54.01;102131.88;4973158;28;20053;-76
2021/04/22 09:20:35;;;;;;;18.60;3.70;;;;;;;9.28;53.44;102128.50;4970749;28;20046;-77
2021/04/22 09:23:13;;;;;;;22.00;3.95;;;;;;;9.09;53.11;102131.50;4956160;28;20124;-78
2021/04/22 09:25:39;;;;;;;20.42;3.75;;;;;;;9.22;54.90;102123.69;4974698;28;20262;-78
2021/04/22 09:28:06;;;;;;;23.15;4.13;;;;;;;9.11;54.37;102120.94;4992668;28;20478;-78
2021/04/22 09:30:40;;;;;;;33.92;4.60;;;;;;;9.10;55.05;102121.91;4978843;28;20091;-78
2021/04/22 09:33:07;;;;;;;35.83;4.90;;;;;;;9.06;53.51;102129.13;4988884;28;20076;-74
2021/04/22 09:35:33;;;;;;;25.52;3.40;;;;;;;9.24;54.44;102128.81;4989447;28;20042;-76
2021/04/22 09:37:59;;;;;;;19.15;4.07;;;;;;;9.29;53.68;102137.22;4960580;28;20539;-77
2021/04/22 09:40:33;;;;;;;26.58;4.15;;;;;;;9.35;51.89;102116.66;5000722;28;20046;-78
2021/04/22 09:43:01;;;;;;;22.90;3.70;;;;;;;9.43;51.93;102134.47;4972130;28;20125;-78
2021/04/22 09:45:32;;;;;;;18.08;3.80;;;;;;;9.94;51.90;102110.84;4990615;28;20061;-78
2021/04/22 09:47:58;;;;;;;23.10;3.65;;;;;;;10.27;49.83;102119.03;4986967;28;20145;-77
2021/04/22 09:50:29;;;;;;;20.58;3.47;;;;;;;10.75;46.07;102116.38;4990603;28;20868;-77
2021/04/22 09:52:57;;;;;;;18.00;3.58;;;;;;;10.83;46.10;102128.94;4985661;28;20054;-76
2021/04/22 09:55:26;;;;;;;17.67;3.58;;;;;;;10.88;48.01;102114.53;4958088;28;20051;-75
2021/04/22 09:58:03;;;;;;;22.83;3.55;;;;;;;10.69;49.49;102122.94;4960068;28;20547;-77
2021/04/22 10:00:32;;;;;;;18.25;3.50;;;;;;;10.32;48.75;102125.63;4972453;28;20050;-76
2021/04/22 10:03:00;;;;;;;18.85;3.55;;;;;;;10.94;50.54;102126.34;4989277;28;20046;-77
2021/04/22 10:05:37;;;;;;;18.98;3.90;;;;;;;11.20;48.76;102129.63;4981289;28;20043;-75
2021/04/22 10:08:12;;;;;;;20.73;3.60;;;;;;;11.59;46.54;102140.69;4968922;28;20129;-78
2021/04/22 10:10:56;;;;;;;17.35;3.95;;;;;;;11.81;45.22;102133.72;4974229;28;20042;-78
2021/04/22 10:13:22;;;;;;;15.95;3.83;;;;;;;11.23;48.06;102139.09;4991342;28;20054;-76
2021/04/22 10:15:50;;;;;;;17.50;3.92;;;;;;;11.65;48.77;102144.63;5006820;28;20520;-77
2021/04/22 10:18:15;;;;;;;15.32;3.33;;;;;;;11.33;47.55;102140.06;4958114;28;20046;-77
2021/04/22 10:20:41;;;;;;;18.98;3.60;;;;;;;11.22;47.32;102142.66;4968653;28;20747;-76
2021/04/22 10:23:09;;;;;;;14.98;3.30;;;;;;;10.78;47.58;102138.97;4953318;28;20093;-78
2021/04/22 10:25:41;;;;;;;17.25;3.90;;;;;;;10.38;49.87;102153.22;4991392;28;20821;-76
2021/04/22 10:28:08;;;;;;;24.77;4.23;;;;;;;10.18;50.63;102146.72;4984733;28;20054;-78
2021/04/22 10:30:34;;;;;;;22.30;4.10;;;;;;;10.94;47.28;102139.47;4995899;28;20132;-76
2021/04/22 10:33:00;;;;;;;14.02;3.33;;;;;;;11.77;46.91;102127.03;4991918;28;20120;-78
2021/04/22 10:35:28;;;;;;;16.30;3.55;;;;;;;11.60;45.08;102147.63;4974826;28;20137;-80
2021/04/22 10:37:54;;;;;;;14.07;3.70;;;;;;;10.99;47.19;102152.28;4976038;28;20081;-78
2021/04/22 10:40:23;;;;;;;18.58;3.55;;;;;;;10.63;49.38;102143.56;4973965;28;20042;-77
2021/04/22 10:42:52;;;;;;;18.10;3.60;;;;;;;10.97;48.90;102152.38;4994752;28;20043;-80
2021/04/22 10:45:18;;;;;;;17.98;3.72;;;;;;;10.98;47.63;102153.22;4991390;28;20085;-76
2021/04/22 10:47:45;;;;;;;12.88;3.10;;;;;;;10.80;48.86;102155.44;4956897;28;20411;-77
2021/04/22 10:50:28;;;;;;;20.27;4.25;;;;;;;10.50;48.81;102154.94;4991495;28;20047;-80
2021/04/22 10:52:57;;;;;;;16.73;4.60;;;;;;;10.11;49.17;102151.59;4985253;28;20394;-80
2021/04/22 10:55:33;;;;;;;14.05;3.55;;;;;;;10.89;49.20;102150.34;4973057;28;20038;-79
2021/04/22 10:58:25;;;;;;;15.45;3.28;;;;;;;11.02;48.73;102152.03;4974096;28;20041;-79
2021/04/22 11:00:54;;;;;;;19.52;3.70;;;;;;;10.65;49.67;102149.53;5006123;28;20404;-77
2021/04/22 11:03:37;;;;;;;22.70;4.80;;;;;;;9.93;53.21;102161.56;4986400;28;20062;-74
2021/04/22 11:06:04;;;;;;;30.83;4.88;;;;;;;9.68;55.70;102169.47;4984105;28;20420;-77
2021/04/22 11:08:40;;;;;;;23.00;4.88;;;;;;;9.55;56.02;102165.06;4973911;28;20054;-77
2021/04/22 11:11:15;;;;;;;22.10;4.72;;;;;;;9.82;56.31;102168.53;4958091;28;20050;-77
2021/04/22 11:13:42;;;;;;;25.67;5.47;;;;;;;10.50;51.69;102154.94;4972798;28;20049;-76
2021/04/22 11:16:08;;;;;;;11.98;3.67;;;;;;;11.38;51.27;102151.06;4991759;28;20091;-77
2021/04/22 11:18:47;;;;;;;21.63;4.22;;;;;;;11.77;50.29;102153.34;4990322;28;20056;-74
2021/04/22 11:21:24;;;;;;;15.60;3.25;;;;;;;11.43;49.56;102151.53;4989569;28;20050;-78
2021/04/22 11:23:52;;;;;;;14.95;3.53;;;;;;;10.80;52.37;102151.00;4992003;28;20100;-76